sensor_id;sensor_type;location;lat;lon;timestamp;pressure;altitude;pressure_sealevel;temperature;humidity
75767;BME280;64378;55.596;13.014;2023-04-15T00:02:21;101071.94;;;21.04;40.20
75767;BME280;64378;55.596;13.014;2023-04-15T00:04:47;101068.66;;;21.02;40.21
75767;BME280;64378;55.596;13.014;2023-04-15T00:07:13;101066.16;;;21.00;40.14
75767;BME280;64378;55.596;13.014;2023-04-15T00:09:40;101063.97;;;21.02;40.14
75767;BME280;64378;55.596;13.014;2023-04-15T00:12:05;101065.63;;;21.03;40.22
75767;BME280;64378;55.596;13.014;2023-04-15T00:14:33;101068.66;;;21.02;40.24
75767;BME280;64378;55.596;13.014;2023-04-15T00:16:58;101075.75;;;21.03;40.00
75767;BME280;64378;55.596;13.014;2023-04-15T00:19:24;101067.81;;;21.01;40.10
75767;BME280;64378;55.596;13.014;2023-04-15T00:21:49;101068.91;;;21.00;40.25
75767;BME280;64378;55.596;13.014;2023-04-15T00:24:15;101070.81;;;21.00;40.03
75767;BME280;64378;55.596;13.014;2023-04-15T00:26:41;101071.41;;;21.02;40.25
75767;BME280;64378;55.596;13.014;2023-04-15T00:29:06;101064.50;;;20.99;40.16
75767;BME280;64378;55.596;13.014;2023-04-15T00:31:32;101063.41;;;21.00;40.07
75767;BME280;64378;55.596;13.014;2023-04-15T00:33:57;101061.75;;;20.99;40.06
75767;BME280;64378;55.596;13.014;2023-04-15T00:36:23;101065.06;;;21.01;40.09
75767;BME280;64378;55.596;13.014;2023-04-15T00:38:50;101063.41;;;21.00;40.10
75767;BME280;64378;55.596;13.014;2023-04-15T00:41:17;101070.56;;;21.01;40.19
75767;BME280;64378;55.596;13.014;2023-04-15T00:43:43;101066.72;;;21.02;39.98
75767;BME280;64378;55.596;13.014;2023-04-15T00:46:08;101065.06;;;21.01;39.97
75767;BME280;64378;55.596;13.014;2023-04-15T00:48:37;101062.31;;;21.01;40.08
75767;BME280;64378;55.596;13.014;2023-04-15T00:51:03;101067.81;;;21.01;39.83
75767;BME280;64378;55.596;13.014;2023-04-15T00:53:29;101064.50;;;20.99;39.92
75767;BME280;64378;55.596;13.014;2023-04-15T00:55:54;101066.44;;;20.99;39.96
75767;BME280;64378;55.596;13.014;2023-04-15T00:58:20;101065.84;;;20.97;40.09
75767;BME280;64378;55.596;13.014;2023-04-15T01:00:46;101063.94;;;20.97;39.86
75767;BME280;64378;55.596;13.014;2023-04-15T01:03:12;101073.81;;;20.98;40.03
75767;BME280;64378;55.596;13.014;2023-04-15T01:05:38;101069.97;;;20.99;39.94
75767;BME280;64378;55.596;13.014;2023-04-15T01:08:04;101069.97;;;20.99;40.09
75767;BME280;64378;55.596;13.014;2023-04-15T01:10:30;101062.84;;;20.98;39.81
75767;BME280;64378;55.596;13.014;2023-04-15T01:12:56;101057.34;;;20.98;39.88
75767;BME280;64378;55.596;13.014;2023-04-15T01:15:22;101061.75;;;20.99;39.98
75767;BME280;64378;55.596;13.014;2023-04-15T01:17:48;101056.25;;;20.99;39.87
75767;BME280;64378;55.596;13.014;2023-04-15T01:20:14;101065.34;;;21.00;39.88
75767;BME280;64378;55.596;13.014;2023-04-15T01:22:40;101066.94;;;20.96;40.10
75767;BME280;64378;55.596;13.014;2023-04-15T01:25:10;101067.19;;;20.94;39.79
75767;BME280;64378;55.596;13.014;2023-04-15T01:27:38;101063.06;;;20.92;40.13
75767;BME280;64378;55.596;13.014;2023-04-15T01:30:06;101064.72;;;20.93;39.97
75767;BME280;64378;55.596;13.014;2023-04-15T01:32:32;101065.53;;;20.93;40.03
75767;BME280;64378;55.596;13.014;2023-04-15T01:34:57;101070.47;;;20.91;40.12
75767;BME280;64378;55.596;13.014;2023-04-15T01:37:23;101074.03;;;20.92;39.96
75767;BME280;64378;55.596;13.014;2023-04-15T01:39:48;101075.69;;;20.93;40.07
75767;BME280;64378;55.596;13.014;2023-04-15T01:42:14;101082.00;;;20.93;39.98
75767;BME280;64378;55.596;13.014;2023-04-15T01:44:39;101072.97;;;20.93;39.95
75767;BME280;64378;55.596;13.014;2023-04-15T01:47:05;101068.28;;;20.93;39.98
75767;BME280;64378;55.596;13.014;2023-04-15T01:49:31;101065.53;;;20.93;40.02
75767;BME280;64378;55.596;13.014;2023-04-15T01:51:56;101070.22;;;20.93;39.93
75767;BME280;64378;55.596;13.014;2023-04-15T01:54:22;101063.88;;;20.92;39.93
75767;BME280;64378;55.596;13.014;2023-04-15T01:56:47;101069.94;;;20.94;40.02
75767;BME280;64378;55.596;13.014;2023-04-15T01:59:13;101080.09;;;20.94;39.93
75767;BME280;64378;55.596;13.014;2023-04-15T02:01:38;101076.25;;;20.95;40.01
75767;BME280;64378;55.596;13.014;2023-04-15T02:04:03;101081.19;;;20.93;40.17
75767;BME280;64378;55.596;13.014;2023-04-15T02:06:29;101072.69;;;20.94;40.00
75767;BME280;64378;55.596;13.014;2023-04-15T02:08:54;101078.16;;;20.94;39.89
75767;BME280;64378;55.596;13.014;2023-04-15T02:11:20;101078.16;;;20.94;39.84
75767;BME280;64378;55.596;13.014;2023-04-15T02:13:45;101081.75;;;20.95;39.84
75767;BME280;64378;55.596;13.014;2023-04-15T02:16:17;101085.59;;;20.94;39.95
75767;BME280;64378;55.596;13.014;2023-04-15T02:18:44;101074.84;;;20.92;40.03
75767;BME280;64378;55.596;13.014;2023-04-15T02:21:11;101082.00;;;20.93;39.80
75767;BME280;64378;55.596;13.014;2023-04-15T02:23:36;101083.09;;;20.92;39.86
75767;BME280;64378;55.596;13.014;2023-04-15T02:26:01;101081.44;;;20.91;39.96
75767;BME280;64378;55.596;13.014;2023-04-15T02:28:27;101085.00;;;20.92;40.02
75767;BME280;64378;55.596;13.014;2023-04-15T02:30:52;101093.25;;;20.92;39.86
75767;BME280;64378;55.596;13.014;2023-04-15T02:33:20;101089.66;;;20.91;39.85
75767;BME280;64378;55.596;13.014;2023-04-15T02:35:46;101086.09;;;20.91;39.84
75767;BME280;64378;55.596;13.014;2023-04-15T02:38:11;101088.28;;;20.89;39.94
75767;BME280;64378;55.596;13.014;2023-04-15T02:40:38;101077.31;;;20.89;39.94
75767;BME280;64378;55.596;13.014;2023-04-15T02:43:04;101081.13;;;20.88;39.76
75767;BME280;64378;55.596;13.014;2023-04-15T02:45:31;101087.72;;;20.87;39.93
75767;BME280;64378;55.596;13.014;2023-04-15T02:47:56;101083.31;;;20.86;39.83
75767;BME280;64378;55.596;13.014;2023-04-15T02:50:23;101088.56;;;20.87;39.61
75767;BME280;64378;55.596;13.014;2023-04-15T02:52:50;101092.38;;;20.86;39.98
75767;BME280;64378;55.596;13.014;2023-04-15T02:55:16;101097.03;;;20.86;39.68
75767;BME280;64378;55.596;13.014;2023-04-15T02:57:42;101094.28;;;20.86;39.91
75767;BME280;64378;55.596;13.014;2023-04-15T03:00:08;101099.75;;;20.86;39.82
75767;BME280;64378;55.596;13.014;2023-04-15T03:02:37;101093.47;;;20.85;40.33
75767;BME280;64378;55.596;13.014;2023-04-15T03:05:02;101094.56;;;20.84;39.89
75767;BME280;64378;55.596;13.014;2023-04-15T03:07:28;101094.28;;;20.86;39.77
75767;BME280;64378;55.596;13.014;2023-04-15T03:09:54;101100.84;;;20.85;39.49
75767;BME280;64378;55.596;13.014;2023-04-15T03:12:19;101101.69;;;20.85;39.71
75767;BME280;64378;55.596;13.014;2023-04-15T03:14:45;101104.97;;;20.82;39.51
75767;BME280;64378;55.596;13.014;2023-04-15T03:17:10;101103.88;;;20.83;39.73
75767;BME280;64378;55.596;13.014;2023-04-15T03:19:36;101110.44;;;20.82;39.71
75767;BME280;64378;55.596;13.014;2023-04-15T03:22:01;101107.69;;;20.82;39.69
75767;BME280;64378;55.596;13.014;2023-04-15T03:24:27;101113.19;;;20.82;39.56
75767;BME280;64378;55.596;13.014;2023-04-15T03:26:53;101106.84;;;20.82;39.66
75767;BME280;64378;55.596;13.014;2023-04-15T03:29:19;101111.53;;;20.81;39.69
75767;BME280;64378;55.596;13.014;2023-04-15T03:31:45;101113.44;;;20.81;39.71
75767;BME280;64378;55.596;13.014;2023-04-15T03:34:10;101114.50;;;20.80;39.71
75767;BME280;64378;55.596;13.014;2023-04-15T03:36:36;101111.78;;;20.80;39.80
75767;BME280;64378;55.596;13.014;2023-04-15T03:39:01;101117.25;;;20.80;39.77
75767;BME280;64378;55.596;13.014;2023-04-15T03:41:27;101114.50;;;20.80;39.83
75767;BME280;64378;55.596;13.014;2023-04-15T03:43:53;101113.69;;;20.79;39.77
75767;BME280;64378;55.596;13.014;2023-04-15T03:46:18;101120.00;;;20.80;39.54
75767;BME280;64378;55.596;13.014;2023-04-15T03:48:44;101119.19;;;20.79;39.50
75767;BME280;64378;55.596;13.014;2023-04-15T03:51:09;101116.44;;;20.79;39.77
75767;BME280;64378;55.596;13.014;2023-04-15T03:53:35;101117.50;;;20.78;39.79
75767;BME280;64378;55.596;13.014;2023-04-15T03:56:01;101118.09;;;20.80;39.92
75767;BME280;64378;55.596;13.014;2023-04-15T03:58:26;101123.59;;;20.80;39.74
75767;BME280;64378;55.596;13.014;2023-04-15T04:00:52;101129.88;;;20.81;39.80
75767;BME280;64378;55.596;13.014;2023-04-15T04:03:17;101116.44;;;20.79;39.81
75767;BME280;64378;55.596;13.014;2023-04-15T04:05:43;101125.72;;;20.78;39.75
75767;BME280;64378;55.596;13.014;2023-04-15T04:08:08;101132.28;;;20.77;39.67
75767;BME280;64378;55.596;13.014;2023-04-15T04:10:34;101132.28;;;20.77;39.79
75767;BME280;64378;55.596;13.014;2023-04-15T04:13:00;101131.44;;;20.77;39.65
75767;BME280;64378;55.596;13.014;2023-04-15T04:15:26;101133.09;;;20.78;39.71
75767;BME280;64378;55.596;13.014;2023-04-15T04:17:51;101132.28;;;20.77;39.77
75767;BME280;64378;55.596;13.014;2023-04-15T04:20:16;101133.09;;;20.78;39.65
75767;BME280;64378;55.596;13.014;2023-04-15T04:22:42;101133.94;;;20.78;39.59
75767;BME280;64378;55.596;13.014;2023-04-15T04:25:08;101129.28;;;20.79;39.60
75767;BME280;64378;55.596;13.014;2023-04-15T04:27:34;101142.41;;;20.77;39.42
75767;BME280;64378;55.596;13.014;2023-04-15T04:30:00;101142.19;;;20.78;39.70
75767;BME280;64378;55.596;13.014;2023-04-15T04:32:26;101143.00;;;20.79;39.54
75767;BME280;64378;55.596;13.014;2023-04-15T04:34:52;101142.41;;;20.77;39.53
75767;BME280;64378;55.596;13.014;2023-04-15T04:37:17;101143.25;;;20.77;39.44
75767;BME280;64378;55.596;13.014;2023-04-15T04:39:43;101143.25;;;20.77;39.69
75767;BME280;64378;55.596;13.014;2023-04-15T04:42:08;101148.75;;;20.77;39.64
75767;BME280;64378;55.596;13.014;2023-04-15T04:44:34;101148.75;;;20.77;39.73
75767;BME280;64378;55.596;13.014;2023-04-15T04:46:59;101152.31;;;20.78;39.67
75767;BME280;64378;55.596;13.014;2023-04-15T04:49:24;101153.16;;;20.78;39.72
75767;BME280;64378;55.596;13.014;2023-04-15T04:51:50;101153.41;;;20.77;39.61
75767;BME280;64378;55.596;13.014;2023-04-15T04:54:16;101162.47;;;20.77;39.63
75767;BME280;64378;55.596;13.014;2023-04-15T04:56:41;101149.56;;;20.78;39.85
75767;BME280;64378;55.596;13.014;2023-04-15T04:59:07;101161.38;;;20.78;39.62
75767;BME280;64378;55.596;13.014;2023-04-15T05:01:32;101157.59;;;20.79;39.70
75767;BME280;64378;55.596;13.014;2023-04-15T05:03:58;101166.63;;;20.80;39.76
75767;BME280;64378;55.596;13.014;2023-04-15T05:06:24;101166.88;;;20.78;39.66
75767;BME280;64378;55.596;13.014;2023-04-15T05:08:50;101174.25;;;20.78;39.77
75767;BME280;64378;55.596;13.014;2023-04-15T05:11:15;101177.84;;;20.78;39.91
75767;BME280;64378;55.596;13.014;2023-04-15T05:13:41;101177.00;;;20.78;39.78
75767;BME280;64378;55.596;13.014;2023-04-15T05:16:06;101178.91;;;20.77;39.68
75767;BME280;64378;55.596;13.014;2023-04-15T05:18:32;101180.56;;;20.78;39.76
75767;BME280;64378;55.596;13.014;2023-04-15T05:20:58;101186.31;;;20.77;39.83
75767;BME280;64378;55.596;13.014;2023-04-15T05:23:24;101194.28;;;20.78;39.80
75767;BME280;64378;55.596;13.014;2023-04-15T05:25:49;101192.38;;;20.79;39.84
75767;BME280;64378;55.596;13.014;2023-04-15T05:28:15;101195.09;;;20.79;39.74
75767;BME280;64378;55.596;13.014;2023-04-15T05:30:41;101194.91;;;20.80;39.95
75767;BME280;64378;55.596;13.014;2023-04-15T05:33:06;101190.78;;;20.83;39.82
75767;BME280;64378;55.596;13.014;2023-04-15T05:35:32;101204.28;;;20.84;39.86
75767;BME280;64378;55.596;13.014;2023-04-15T05:37:57;101199.34;;;20.86;39.84
75767;BME280;64378;55.596;13.014;2023-04-15T05:40:22;101205.41;;;20.88;39.74
75767;BME280;64378;55.596;13.014;2023-04-15T05:42:48;101203.22;;;20.90;39.71
75767;BME280;64378;55.596;13.014;2023-04-15T05:45:13;101210.13;;;20.93;39.96
75767;BME280;64378;55.596;13.014;2023-04-15T05:47:39;101215.91;;;20.96;39.69
75767;BME280;64378;55.596;13.014;2023-04-15T05:50:05;101219.22;;;20.98;39.70
75767;BME280;64378;55.596;13.014;2023-04-15T05:52:31;101215.97;;;21.01;39.81
75767;BME280;64378;55.596;13.014;2023-04-15T05:54:56;101229.41;;;21.03;39.69
75767;BME280;64378;55.596;13.014;2023-04-15T05:57:22;101226.41;;;21.04;39.53
75767;BME280;64378;55.596;13.014;2023-04-15T05:59:47;101228.66;;;21.07;39.74
75767;BME280;64378;55.596;13.014;2023-04-15T06:02:13;101235.53;;;21.10;39.79
75767;BME280;64378;55.596;13.014;2023-04-15T06:04:38;101233.34;;;21.12;39.74
75767;BME280;64378;55.596;13.014;2023-04-15T06:07:04;101242.16;;;21.14;39.45
75767;BME280;64378;55.596;13.014;2023-04-15T06:09:30;101233.91;;;21.14;39.66
75767;BME280;64378;55.596;13.014;2023-04-15T06:11:55;101240.78;;;21.16;39.64
75767;BME280;64378;55.596;13.014;2023-04-15T06:14:22;101246.03;;;21.18;39.81
75767;BME280;64378;55.596;13.014;2023-04-15T06:16:47;101247.19;;;21.22;39.87
75767;BME280;64378;55.596;13.014;2023-04-15T06:19:12;101261.22;;;21.25;39.75
75767;BME280;64378;55.596;13.014;2023-04-15T06:21:38;101263.44;;;21.28;39.54
75767;BME280;64378;55.596;13.014;2023-04-15T06:24:04;101253.03;;;21.30;39.48
75767;BME280;64378;55.596;13.014;2023-04-15T06:26:29;101258.00;;;21.33;39.45
75767;BME280;64378;55.596;13.014;2023-04-15T06:28:55;101258.56;;;21.35;39.18
75767;BME280;64378;55.596;13.014;2023-04-15T06:31:21;101265.44;;;21.38;39.20
75767;BME280;64378;55.596;13.014;2023-04-15T06:33:46;101267.09;;;21.39;39.38
75767;BME280;64378;55.596;13.014;2023-04-15T06:36:12;101272.34;;;21.40;39.32
75767;BME280;64378;55.596;13.014;2023-04-15T06:38:37;101278.66;;;21.41;39.37
75767;BME280;64378;55.596;13.014;2023-04-15T06:41:03;101281.69;;;21.44;39.59
75767;BME280;64378;55.596;13.014;2023-04-15T06:43:29;101268.81;;;21.45;39.52
75767;BME280;64378;55.596;13.014;2023-04-15T06:45:55;101276.53;;;21.48;39.41
75767;BME280;64378;55.596;13.014;2023-04-15T06:48:21;101277.91;;;21.50;39.09
75767;BME280;64378;55.596;13.014;2023-04-15T06:50:47;101279.34;;;21.53;39.01
75767;BME280;64378;55.596;13.014;2023-04-15T06:53:13;101274.66;;;21.53;38.84
75767;BME280;64378;55.596;13.014;2023-04-15T06:55:38;101279.63;;;21.56;38.68
75767;BME280;64378;55.596;13.014;2023-04-15T06:58:04;101270.31;;;21.57;38.61
75767;BME280;64378;55.596;13.014;2023-04-15T07:00:30;101283.78;;;21.59;38.55
75767;BME280;64378;55.596;13.014;2023-04-15T07:02:55;101283.28;;;21.62;38.44
75767;BME280;64378;55.596;13.014;2023-04-15T07:05:21;101280.53;;;21.62;38.58
75767;BME280;64378;55.596;13.014;2023-04-15T07:07:46;101279.44;;;21.63;38.37
75767;BME280;64378;55.596;13.014;2023-04-15T07:10:12;101286.34;;;21.65;38.26
75767;BME280;64378;55.596;13.014;2023-04-15T07:12:39;101288.00;;;21.66;38.30
75767;BME280;64378;55.596;13.014;2023-04-15T07:15:05;101301.19;;;21.69;38.28
75767;BME280;64378;55.596;13.014;2023-04-15T07:17:31;101290.78;;;21.71;38.26
75767;BME280;64378;55.596;13.014;2023-04-15T07:19:56;101290.25;;;21.74;38.47
75767;BME280;64378;55.596;13.014;2023-04-15T07:22:21;101297.69;;;21.74;38.13
75767;BME280;64378;55.596;13.014;2023-04-15T07:24:47;101298.81;;;21.78;38.31
75767;BME280;64378;55.596;13.014;2023-04-15T07:27:12;101301.28;;;21.79;38.34
75767;BME280;64378;55.596;13.014;2023-04-15T07:29:37;101294.44;;;21.82;38.30
75767;BME280;64378;55.596;13.014;2023-04-15T07:32:03;101297.78;;;21.88;38.34
75767;BME280;64378;55.596;13.014;2023-04-15T07:34:29;101298.66;;;21.94;38.22
75767;BME280;64378;55.596;13.014;2023-04-15T07:36:54;101299.78;;;21.98;38.29
75767;BME280;64378;55.596;13.014;2023-04-15T07:39:19;101291.31;;;22.04;38.14
75767;BME280;64378;55.596;13.014;2023-04-15T07:41:45;101290.78;;;22.02;38.32
75767;BME280;64378;55.596;13.014;2023-04-15T07:44:10;101294.94;;;22.10;38.31
75767;BME280;64378;55.596;13.014;2023-04-15T07:46:36;101303.22;;;22.15;37.92
75767;BME280;64378;55.596;13.014;2023-04-15T07:49:02;101296.66;;;22.21;38.34
75767;BME280;64378;55.596;13.014;2023-04-15T07:51:28;101315.69;;;22.27;38.29
75767;BME280;64378;55.596;13.014;2023-04-15T07:53:54;101292.03;;;22.31;38.15
75767;BME280;64378;55.596;13.014;2023-04-15T07:56:19;101325.94;;;22.05;35.83
75767;BME280;64378;55.596;13.014;2023-04-15T07:58:45;101297.97;;;21.24;37.03
75767;BME280;64378;55.596;13.014;2023-04-15T08:01:10;101291.63;;;21.19;38.35
75767;BME280;64378;55.596;13.014;2023-04-15T08:03:36;101297.25;;;21.34;38.62
75767;BME280;64378;55.596;13.014;2023-04-15T08:06:01;101297.72;;;21.52;38.70
75767;BME280;64378;55.596;13.014;2023-04-15T08:08:27;101305.88;;;21.69;38.65
